Time;durP1;ratioP1;P1;durP2;ratioP2;P2;SDS_P1;SDS_P2;PMS_P1;PMS_P2;Temp;Humidity;BMP_temperature;BMP_pressure;BME280_temperature;BME280_humidity;BME280_pressure;Samples;Min_cycle;Max_cycle;Signal;HPM_P1;HPM_P2
2023/01/01 00:01:38;;;;;;;33.30;24.92;;;16.00;99.90;;;;;;5049470;28;20104;-83
2023/01/01 00:04:05;;;;;;;28.13;19.33;;;16.00;99.90;;;;;;5051194;28;20021;-84
2023/01/01 00:06:30;;;;;;;31.40;21.45;;;16.00;99.90;;;;;;5033194;28;20017;-82
2023/01/01 00:11:51;;;;;;;30.98;21.63;;;16.10;99.90;;;;;;4996473;28;20050;-83
2023/01/01 00:14:16;;;;;;;22.90;14.50;;;16.00;99.90;;;;;;5050846;28;20068;-82
2023/01/01 00:16:42;;;;;;;35.20;22.65;;;16.10;99.90;;;;;;5051522;28;20375;-82
2023/01/01 00:19:08;;;;;;;29.95;20.40;;;16.10;99.90;;;;;;5050787;28;20060;-82
2023/01/01 00:21:33;;;;;;;21.67;16.35;;;16.10;99.90;;;;;;5050829;28;20594;-82
2023/01/01 00:23:59;;;;;;;20.63;13.18;;;16.10;99.90;;;;;;5050744;28;20387;-83
2023/01/01 00:26:25;;;;;;;11.82;8.13;;;16.10;99.90;;;;;;5032956;28;20366;-82
2023/01/01 00:28:50;;;;;;;18.33;9.77;;;16.10;99.90;;;;;;5032966;28;20036;-84
2023/01/01 00:31:20;;;;;;;19.02;11.63;;;16.10;99.90;;;;;;5035915;28;20017;-84
2023/01/01 00:33:50;;;;;;;17.50;9.07;;;16.10;99.90;;;;;;5031467;28;20036;-84
2023/01/01 00:36:16;;;;;;;17.05;7.90;;;16.10;99.90;;;;;;5032019;28;20132;-84
2023/01/01 00:38:43;;;;;;;16.58;7.22;;;16.10;99.90;;;;;;5032249;28;20020;-82
2023/01/01 00:41:09;;;;;;;12.60;7.18;;;16.10;99.90;;;;;;5049868;28;20031;-85
2023/01/01 00:43:35;;;;;;;13.73;6.63;;;16.10;99.90;;;;;;5032511;28;20013;-85
2023/01/01 00:46:01;;;;;;;10.32;5.45;;;16.00;99.90;;;;;;5050489;28;20675;-84
2023/01/01 00:48:27;;;;;;;13.57;5.28;;;15.80;99.90;;;;;;5032224;28;20017;-82
2023/01/01 00:50:53;;;;;;;11.98;4.97;;;15.70;99.90;;;;;;5050074;28;20422;-83
2023/01/01 00:53:19;;;;;;;10.77;5.55;;;15.40;99.90;;;;;;5032397;28;20120;-83
2023/01/01 00:55:47;;;;;;;13.52;4.45;;;15.40;99.90;;;;;;5050695;28;20513;-83
2023/01/01 00:58:13;;;;;;;10.57;4.45;;;15.50;99.90;;;;;;5028723;28;20009;-83
2023/01/01 01:00:38;;;;;;;13.80;4.10;;;15.50;99.90;;;;;;5036420;28;20028;-83
2023/01/01 01:03:04;;;;;;;11.60;4.25;;;15.60;99.90;;;;;;5053704;28;20025;-84
2023/01/01 01:05:31;;;;;;;9.07;3.65;;;15.60;99.90;;;;;;5053775;28;20077;-82
2023/01/01 01:07:57;;;;;;;8.43;3.80;;;15.60;99.90;;;;;;5035801;28;20593;-84
2023/01/01 01:10:24;;;;;;;8.93;3.58;;;15.60;99.90;;;;;;5053931;28;20040;-83
2023/01/01 01:12:51;;;;;;;7.18;3.65;;;15.60;99.90;;;;;;5035672;28;20082;-82
2023/01/01 01:15:17;;;;;;;8.93;3.90;;;15.60;99.90;;;;;;5035394;28;20037;-82
2023/01/01 01:17:43;;;;;;;7.82;3.45;;;15.60;99.90;;;;;;5053742;28;20111;-85
2023/01/01 01:20:09;;;;;;;10.02;3.60;;;15.60;99.90;;;;;;5054024;28;20111;-83
2023/01/01 01:22:34;;;;;;;7.40;3.15;;;15.50;99.90;;;;;;5053733;28;20052;-83
2023/01/01 01:25:00;;;;;;;7.00;2.90;;;15.50;99.90;;;;;;5036218;28;20038;-82
2023/01/01 01:27:26;;;;;;;7.93;3.58;;;15.50;99.90;;;;;;5053845;28;20142;-84
2023/01/01 01:29:52;;;;;;;5.70;2.72;;;15.40;99.90;;;;;;5054227;28;20584;-85
2023/01/01 01:32:18;;;;;;;11.48;3.13;;;15.40;99.90;;;;;;5054100;28;20104;-82
2023/01/01 01:34:44;;;;;;;8.70;2.83;;;15.40;99.90;;;;;;5035840;28;20136;-84
2023/01/01 01:37:10;;;;;;;7.93;2.47;;;15.40;99.90;;;;;;5036041;28;20444;-83
2023/01/01 01:39:36;;;;;;;7.30;2.30;;;15.40;99.90;;;;;;5036167;28;20025;-85
2023/01/01 01:42:02;;;;;;;9.98;2.55;;;15.30;99.90;;;;;;5054736;28;20378;-84
2023/01/01 01:44:53;;;;;;;9.45;2.72;;;15.30;99.90;;;;;;5036549;28;20458;-82
2023/01/01 01:47:37;;;;;;;5.68;2.08;;;15.30;99.90;;;;;;5054218;28;20124;-84
2023/01/01 01:50:06;;;;;;;4.53;2.05;;;15.40;99.90;;;;;;5021063;28;20094;-81
2023/01/01 01:52:35;;;;;;;7.60;2.20;;;15.40;99.90;;;;;;5035039;28;20064;-81
2023/01/01 01:55:04;;;;;;;8.32;2.58;;;15.40;99.90;;;;;;5034869;28;20033;-82
2023/01/01 01:57:31;;;;;;;6.30;2.08;;;15.50;99.90;;;;;;5017097;28;20018;-81
2023/01/01 01:59:58;;;;;;;6.03;2.30;;;15.40;99.90;;;;;;5017093;28;20021;-83
2023/01/01 02:02:31;;;;;;;7.78;2.13;;;15.40;99.90;;;;;;5035150;28;20025;-84
2023/01/01 02:04:56;;;;;;;7.40;2.20;;;15.50;99.90;;;;;;5034881;28;20100;-83
2023/01/01 02:07:24;;;;;;;6.63;1.75;;;15.50;99.90;;;;;;5016328;28;20060;-83
2023/01/01 02:09:50;;;;;;;6.97;2.38;;;15.50;99.90;;;;;;5017095;28;20022;-83
2023/01/01 02:12:16;;;;;;;7.20;1.70;;;15.50;99.90;;;;;;5034811;28;20101;-82
2023/01/01 02:14:41;;;;;;;5.10;1.63;;;15.50;99.90;;;;;;5017058;28;20076;-84
2023/01/01 02:17:14;;;;;;;5.15;1.77;;;15.50;99.90;;;;;;5034473;28;20036;-83
2023/01/01 02:19:40;;;;;;;5.57;2.03;;;15.50;99.90;;;;;;5034555;28;20065;-82
2023/01/01 02:22:18;;;;;;;6.97;1.77;;;15.40;99.90;;;;;;5016842;28;20468;-84
2023/01/01 02:25:02;;;;;;;7.22;2.00;;;15.30;99.90;;;;;;5016721;28;20435;-84
2023/01/01 02:27:39;;;;;;;7.50;2.35;;;15.30;99.90;;;;;;5034362;28;20033;-83
2023/01/01 02:30:08;;;;;;;8.57;2.55;;;15.20;99.90;;;;;;5016772;28;20442;-84
2023/01/01 02:32:39;;;;;;;5.03;2.10;;;15.30;99.90;;;;;;5034468;28;20026;-83
2023/01/01 02:38:02;;;;;;;6.07;2.00;;;15.30;99.90;;;;;;5034262;28;20036;-84
2023/01/01 02:40:28;;;;;;;5.20;2.08;;;15.30;99.90;;;;;;5034187;28;20100;-85
2023/01/01 02:42:55;;;;;;;5.45;1.63;;;15.30;99.90;;;;;;5033900;28;20120;-85
2023/01/01 02:45:21;;;;;;;5.72;1.70;;;15.30;99.90;;;;;;5016164;28;20055;-84
2023/01/01 02:47:46;;;;;;;9.63;2.15;;;15.40;99.90;;;;;;5016312;28;20447;-86
2023/01/01 02:50:17;;;;;;;4.85;1.70;;;15.40;99.90;;;;;;5034061;28;20056;-85
2023/01/01 02:53:08;;;;;;;4.30;1.58;;;15.40;99.90;;;;;;5016055;28;20076;-86
2023/01/01 02:55:37;;;;;;;5.97;2.00;;;15.40;99.90;;;;;;5033901;28;20039;-85
2023/01/01 03:01:11;;;;;;;4.57;1.50;;;15.40;99.90;;;;;;5034017;28;20036;-84
2023/01/01 03:04:06;;;;;;;6.65;1.50;;;15.50;99.90;;;;;;5033719;28;20463;-84
2023/01/01 03:06:52;;;;;;;7.15;1.88;;;15.50;99.90;;;;;;5012843;28;20040;-83
2023/01/01 03:09:36;;;;;;;5.53;2.10;;;15.40;99.90;;;;;;4976187;28;20475;-85
2023/01/01 03:12:12;;;;;;;4.57;1.30;;;15.40;99.90;;;;;;5015804;28;20391;-85
2023/01/01 03:14:45;;;;;;;5.13;1.38;;;15.40;99.90;;;;;;5015578;28;20091;-84
2023/01/01 03:17:21;;;;;;;5.22;1.75;;;15.40;99.90;;;;;;5015881;28;20026;-85
2023/01/01 03:19:49;;;;;;;4.45;1.50;;;15.30;99.90;;;;;;5032772;28;20051;-84
2023/01/01 03:22:17;;;;;;;7.07;1.50;;;15.30;99.90;;;;;;5033629;28;20062;-83
2023/01/01 03:25:15;;;;;;;7.30;1.83;;;15.30;99.90;;;;;;5014868;28;20032;-84
2023/01/01 03:27:45;;;;;;;4.35;1.70;;;15.30;99.90;;;;;;5013966;28;20083;-85
2023/01/01 03:30:13;;;;;;;5.50;1.67;;;15.30;99.90;;;;;;5015716;28;20017;-84
2023/01/01 03:33:00;;;;;;;9.85;1.80;;;15.30;99.90;;;;;;5015481;28;20037;-83
2023/01/01 03:35:31;;;;;;;6.22;1.75;;;15.30;99.90;;;;;;5033072;28;20045;-85
2023/01/01 03:37:59;;;;;;;5.97;1.33;;;15.30;99.90;;;;;;5015584;28;20021;-84
2023/01/01 03:40:27;;;;;;;3.67;1.67;;;15.30;99.90;;;;;;5033337;28;20028;-84
2023/01/01 03:42:58;;;;;;;5.38;2.00;;;15.20;99.90;;;;;;5015581;28;20026;-83
2023/01/01 03:45:36;;;;;;;5.32;1.40;;;15.20;99.90;;;;;;5015206;28;20115;-84
2023/01/01 03:48:04;;;;;;;4.65;1.45;;;15.20;99.90;;;;;;5033139;28;20040;-83
2023/01/01 03:50:57;;;;;;;7.88;1.70;;;15.20;99.90;;;;;;5033087;28;20020;-83
2023/01/01 03:53:40;;;;;;;6.05;1.67;;;15.20;99.90;;;;;;5032863;28;20029;-84
2023/01/01 03:56:33;;;;;;;9.65;2.42;;;15.20;99.90;;;;;;5032805;28;20029;-84
2023/01/01 03:59:10;;;;;;;7.50;1.88;;;15.20;99.90;;;;;;5032969;28;20309;-84
2023/01/01 04:01:39;;;;;;;5.30;1.40;;;15.20;99.90;;;;;;5015595;28;20122;-84
2023/01/01 04:04:06;;;;;;;4.95;1.77;;;15.10;99.90;;;;;;5037807;28;20016;-83
2023/01/01 04:06:32;;;;;;;4.20;1.42;;;15.10;99.90;;;;;;5072258;28;20048;-83
2023/01/01 04:09:00;;;;;;;6.28;1.60;;;15.10;99.90;;;;;;5054191;28;20021;-85
2023/01/01 04:14:24;;;;;;;5.63;1.45;;;15.10;99.90;;;;;;5072983;28;20093;-84
2023/01/01 04:16:49;;;;;;;5.22;1.50;;;15.10;99.90;;;;;;5072801;28;20037;-83
2023/01/01 04:19:15;;;;;;;6.07;1.60;;;15.10;99.90;;;;;;5054493;28;20036;-85
2023/01/01 04:21:41;;;;;;;4.40;1.63;;;15.10;99.90;;;;;;5052093;28;20075;-82
2023/01/01 04:24:06;;;;;;;3.40;1.45;;;15.10;99.90;;;;;;5033951;28;20013;-84
2023/01/01 04:26:32;;;;;;;4.93;1.73;;;15.10;99.90;;;;;;5051955;28;20390;-83
2023/01/01 04:28:57;;;;;;;5.72;1.40;;;15.10;99.90;;;;;;5052552;28;20056;-82
2023/01/01 04:31:23;;;;;;;5.95;1.40;;;15.10;99.90;;;;;;5034166;28;20029;-83
2023/01/01 04:33:52;;;;;;;5.80;1.58;;;15.00;99.90;;;;;;5017840;28;20045;-82
2023/01/01 04:36:18;;;;;;;5.30;1.48;;;15.00;99.90;;;;;;5051693;28;20080;-84
2023/01/01 04:38:44;;;;;;;5.82;1.58;;;15.00;99.90;;;;;;5052122;28;20049;-83
2023/01/01 04:41:09;;;;;;;5.25;1.35;;;15.10;99.90;;;;;;5052203;28;20069;-84
2023/01/01 04:43:35;;;;;;;5.72;1.80;;;15.00;99.90;;;;;;5052673;28;20025;-84
2023/01/01 04:46:03;;;;;;;5.30;1.27;;;15.00;99.90;;;;;;5034280;28;20387;-84
2023/01/01 04:48:29;;;;;;;6.38;1.30;;;15.00;99.90;;;;;;5052447;28;20094;-85
2023/01/01 04:51:03;;;;;;;4.75;1.30;;;15.00;99.90;;;;;;5033002;28;20033;-84
2023/01/01 04:53:31;;;;;;;7.70;1.73;;;15.00;99.90;;;;;;5047736;28;20032;-83
2023/01/01 04:56:12;;;;;;;9.07;1.88;;;15.00;99.90;;;;;;5052124;28;20437;-82
2023/01/01 04:58:39;;;;;;;6.53;1.77;;;15.00;99.90;;;;;;5034200;28;20017;-82
2023/01/01 05:01:06;;;;;;;6.38;1.50;;;15.00;99.90;;;;;;5052030;28;20029;-83
2023/01/01 05:03:32;;;;;;;6.32;1.73;;;15.00;99.90;;;;;;5034339;28;20036;-84
2023/01/01 05:06:02;;;;;;;4.03;1.33;;;15.00;99.90;;;;;;5052156;28;20029;-83
2023/01/01 05:08:33;;;;;;;6.70;1.95;;;15.00;99.90;;;;;;5034218;28;20024;-84
2023/01/01 05:11:03;;;;;;;3.53;1.15;;;15.00;99.90;;;;;;5052025;28;20044;-85
2023/01/01 05:13:29;;;;;;;5.63;1.40;;;15.00;99.90;;;;;;5029415;28;20491;-84
2023/01/01 05:15:55;;;;;;;5.35;1.70;;;15.00;99.90;;;;;;5052224;28;20052;-84
2023/01/01 05:18:21;;;;;;;5.75;1.50;;;15.00;99.90;;;;;;5052010;28;20025;-85
2023/01/01 05:20:46;;;;;;;8.23;1.42;;;15.00;99.90;;;;;;5051991;28;20116;-84
2023/01/01 05:23:14;;;;;;;9.45;2.00;;;14.90;99.90;;;;;;5034184;28;20375;-83
2023/01/01 05:25:39;;;;;;;7.00;1.50;;;14.90;99.90;;;;;;5033933;28;20025;-81
2023/01/01 05:28:05;;;;;;;3.75;1.25;;;15.00;99.90;;;;;;5034016;28;20098;-83
2023/01/01 05:30:30;;;;;;;6.40;2.08;;;14.90;99.90;;;;;;5051939;28;20055;-83
2023/01/01 05:32:56;;;;;;;7.63;1.90;;;14.90;99.90;;;;;;5034212;28;20025;-84
2023/01/01 05:35:21;;;;;;;5.68;1.60;;;14.80;99.90;;;;;;5051604;28;20041;-82
2023/01/01 05:37:47;;;;;;;4.97;1.23;;;14.80;99.90;;;;;;5033880;28;20017;-84
2023/01/01 05:40:12;;;;;;;6.85;1.75;;;14.70;99.90;;;;;;5033744;28;20471;-83
2023/01/01 05:42:38;;;;;;;4.90;1.42;;;14.70;99.90;;;;;;5035852;28;20410;-85
2023/01/01 05:45:04;;;;;;;3.97;1.10;;;14.80;99.90;;;;;;5037547;28;20033;-83
2023/01/01 05:47:30;;;;;;;3.45;0.98;;;14.80;99.90;;;;;;5037400;28;20028;-84
2023/01/01 05:49:55;;;;;;;2.92;1.02;;;14.80;99.90;;;;;;5054880;28;20033;-84
2023/01/01 05:52:21;;;;;;;5.65;1.40;;;14.80;99.90;;;;;;5055406;28;20244;-83
2023/01/01 05:54:46;;;;;;;8.90;1.60;;;14.80;99.90;;;;;;5037202;28;20029;-84
2023/01/01 05:57:12;;;;;;;5.25;1.13;;;14.70;99.90;;;;;;5037599;28;20021;-84
2023/01/01 05:59:37;;;;;;;4.97;1.08;;;14.70;99.90;;;;;;5037396;28;20021;-83
2023/01/01 06:02:03;;;;;;;3.83;1.00;;;14.60;99.90;;;;;;5055508;28;20052;-83
2023/01/01 06:04:29;;;;;;;6.60;1.30;;;14.60;99.90;;;;;;5037054;28;20025;-82
2023/01/01 06:06:54;;;;;;;5.15;1.40;;;14.50;99.90;;;;;;5054817;28;20025;-83
2023/01/01 06:09:20;;;;;;;6.45;1.30;;;14.40;99.90;;;;;;5055018;28;20115;-84
2023/01/01 06:11:45;;;;;;;5.25;1.33;;;14.40;99.90;;;;;;5055100;28;20029;-83
2023/01/01 06:14:11;;;;;;;7.38;1.25;;;14.40;99.90;;;;;;5055102;28;20501;-84
2023/01/01 06:16:36;;;;;;;3.50;0.90;;;14.40;99.90;;;;;;5037073;28;20028;-84
2023/01/01 06:19:02;;;;;;;3.55;1.25;;;14.40;99.90;;;;;;5054789;28;20056;-83
2023/01/01 06:21:28;;;;;;;6.60;1.33;;;14.40;99.90;;;;;;5036887;28;20028;-83
2023/01/01 06:23:56;;;;;;;4.22;0.80;;;14.40;99.90;;;;;;5054736;28;20033;-83
2023/01/01 06:26:25;;;;;;;3.28;1.13;;;14.30;99.90;;;;;;5054771;28;20379;-83
2023/01/01 06:28:51;;;;;;;6.80;1.42;;;14.30;99.90;;;;;;5036667;28;20021;-85
2023/01/01 06:31:19;;;;;;;3.78;1.08;;;14.20;99.90;;;;;;5054763;28;20379;-82
2023/01/01 06:33:44;;;;;;;4.35;1.35;;;14.20;99.90;;;;;;5054160;28;20029;-83
2023/01/01 06:36:12;;;;;;;6.20;1.48;;;14.10;99.90;;;;;;5036398;28;20357;-83
2023/01/01 06:38:40;;;;;;;4.82;1.27;;;14.10;99.90;;;;;;5036461;28;20045;-82
2023/01/01 06:41:10;;;;;;;5.57;1.08;;;14.10;99.90;;;;;;5036433;28;20037;-84
2023/01/01 06:43:36;;;;;;;4.40;1.10;;;14.10;99.90;;;;;;5054226;28;20025;-84
2023/01/01 06:46:06;;;;;;;4.60;1.20;;;14.10;99.90;;;;;;5036600;28;20039;-84
2023/01/01 06:48:34;;;;;;;5.75;1.27;;;14.00;99.90;;;;;;5036413;28;20499;-85
2023/01/01 06:51:11;;;;;;;5.53;1.33;;;14.00;99.90;;;;;;5054344;28;20390;-84
2023/01/01 06:53:37;;;;;;;6.43;1.10;;;13.90;99.90;;;;;;5054273;28;20064;-83
2023/01/01 06:56:03;;;;;;;4.18;1.30;;;13.90;99.90;;;;;;5035777;28;20056;-83
2023/01/01 06:58:29;;;;;;;4.25;1.10;;;13.80;99.90;;;;;;5054020;28;20028;-83
2023/01/01 07:01:16;;;;;;;3.10;0.80;;;13.80;99.90;;;;;;5036260;28;20025;-84
2023/01/01 07:03:43;;;;;;;3.22;0.77;;;13.80;99.90;;;;;;5036161;28;20017;-86
2023/01/01 07:06:09;;;;;;;5.22;0.80;;;13.70;99.90;;;;;;5035955;28;20426;-84
2023/01/01 07:08:36;;;;;;;5.93;1.08;;;13.60;99.90;;;;;;5053695;28;20040;-82
2023/01/01 07:11:02;;;;;;;5.88;1.08;;;13.50;99.90;;;;;;5036161;28;20069;-84
2023/01/01 07:13:29;;;;;;;3.13;0.73;;;13.30;99.90;;;;;;5036170;28;20028;-83
2023/01/01 07:15:55;;;;;;;3.08;0.70;;;13.20;99.90;;;;;;5036031;28;20513;-84
2023/01/01 07:18:21;;;;;;;4.35;0.70;;;13.00;99.90;;;;;;5036219;28;20079;-83
2023/01/01 07:20:59;;;;;;;2.53;0.68;;;12.80;99.90;;;;;;5053764;28;20029;-83
2023/01/01 07:23:26;;;;;;;3.10;0.70;;;12.70;99.90;;;;;;5035692;28;20027;-84
2023/01/01 07:25:53;;;;;;;2.55;0.50;;;12.60;99.90;;;;;;5035572;28;20017;-84
2023/01/01 07:28:19;;;;;;;3.58;0.73;;;12.50;99.90;;;;;;5035404;28;20141;-82
2023/01/01 07:30:45;;;;;;;3.80;0.75;;;12.30;99.90;;;;;;5053448;28;20021;-84
2023/01/01 07:33:12;;;;;;;3.15;0.55;;;12.20;99.90;;;;;;5053034;28;20116;-82
2023/01/01 07:35:38;;;;;;;4.75;0.80;;;12.00;99.90;;;;;;5052938;28;20139;-84
2023/01/01 07:38:05;;;;;;;3.55;0.63;;;11.90;99.90;;;;;;5053187;28;20174;-85
2023/01/01 07:40:30;;;;;;;3.00;0.60;;;11.70;99.90;;;;;;5053040;28;20021;-83
2023/01/01 07:42:56;;;;;;;6.43;0.65;;;11.50;99.90;;;;;;5053075;28;20025;-84
2023/01/01 07:45:22;;;;;;;3.10;0.60;;;11.30;99.90;;;;;;5052924;28;20056;-83
2023/01/01 07:47:51;;;;;;;3.55;0.65;;;11.10;99.90;;;;;;5034806;28;20025;-83
2023/01/01 07:50:18;;;;;;;5.22;1.08;;;10.90;99.90;;;;;;5035098;28;20040;-83
2023/01/01 07:52:44;;;;;;;2.05;0.52;;;10.80;99.90;;;;;;5034786;28;20526;-83
2023/01/01 07:55:14;;;;;;;2.72;0.63;;;10.70;99.90;;;;;;5052480;28;20048;-84
2023/01/01 07:57:41;;;;;;;3.60;0.50;;;10.70;99.90;;;;;;5034886;28;20388;-83
2023/01/01 08:00:08;;;;;;;2.40;0.63;;;10.70;99.90;;;;;;5034791;28;20031;-83
2023/01/01 08:02:34;;;;;;;2.83;0.60;;;10.70;99.90;;;;;;5034942;28;20048;-82
2023/01/01 08:04:59;;;;;;;5.68;0.85;;;10.80;99.90;;;;;;5051120;28;20053;-82
2023/01/01 08:07:25;;;;;;;2.20;0.50;;;10.80;99.90;;;;;;5052527;28;20029;-83
2023/01/01 08:09:50;;;;;;;2.95;0.50;;;10.90;99.90;;;;;;5034508;28;20036;-84
2023/01/01 08:12:16;;;;;;;4.47;0.68;;;10.90;99.90;;;;;;5052955;28;20029;-82
2023/01/01 08:14:41;;;;;;;4.03;0.68;;;11.00;99.90;;;;;;5052437;28;20072;-83
2023/01/01 08:17:07;;;;;;;4.13;0.60;;;11.00;99.90;;;;;;5052585;28;20464;-82
2023/01/01 08:19:32;;;;;;;3.53;0.90;;;11.10;99.90;;;;;;5052604;28;20064;-83
2023/01/01 08:21:58;;;;;;;7.60;0.95;;;11.10;99.90;;;;;;5034567;28;20021;-83
2023/01/01 08:24:24;;;;;;;2.78;0.70;;;11.10;99.90;;;;;;5034331;28;20490;-83
2023/01/01 08:26:49;;;;;;;2.80;0.68;;;11.20;99.90;;;;;;5052173;28;20033;-81
2023/01/01 08:29:15;;;;;;;4.57;0.93;;;11.20;99.90;;;;;;5034363;28;20031;-83
2023/01/01 08:31:41;;;;;;;1.83;0.40;;;11.30;99.90;;;;;;5052378;28;20199;-82
2023/01/01 08:34:06;;;;;;;3.10;0.68;;;11.30;99.90;;;;;;5034430;28;20037;-82
2023/01/01 08:36:32;;;;;;;4.10;0.60;;;11.30;99.90;;;;;;5034251;28;20033;-83
2023/01/01 08:38:58;;;;;;;1.17;0.50;;;11.30;99.90;;;;;;5033987;28;20028;-83
2023/01/01 08:41:24;;;;;;;2.55;0.60;;;11.30;99.90;;;;;;5051765;28;20041;-83
2023/01/01 08:43:49;;;;;;;3.00;0.70;;;11.40;99.90;;;;;;5051801;28;20029;-82
2023/01/01 08:46:15;;;;;;;3.65;0.75;;;11.40;99.90;;;;;;5034222;28;20033;-83
2023/01/01 08:48:41;;;;;;;2.63;0.50;;;11.50;99.90;;;;;;5052125;28;20029;-83
2023/01/01 08:51:08;;;;;;;4.57;0.93;;;11.60;99.90;;;;;;5034147;28;20108;-83
2023/01/01 08:53:35;;;;;;;5.38;0.73;;;11.60;99.90;;;;;;5034090;28;20017;-84
2023/01/01 08:56:06;;;;;;;5.43;0.80;;;11.60;99.90;;;;;;5032640;28;20037;-82
2023/01/01 08:58:34;;;;;;;4.35;1.73;;;11.60;99.90;;;;;;5031568;28;20025;-83
2023/01/01 09:00:59;;;;;;;2.30;0.52;;;11.70;99.90;;;;;;5030824;28;20429;-84
2023/01/01 09:03:25;;;;;;;4.03;0.85;;;11.70;99.90;;;;;;5031860;28;20029;-83
2023/01/01 09:05:51;;;;;;;3.10;0.80;;;11.70;99.90;;;;;;5031728;28;20033;-83
2023/01/01 09:08:17;;;;;;;4.18;0.80;;;11.80;99.90;;;;;;5031434;28;20551;-83
2023/01/01 09:10:43;;;;;;;4.03;0.70;;;11.80;99.90;;;;;;5031737;28;20491;-84
2023/01/01 09:13:10;;;;;;;3.95;0.70;;;11.90;99.90;;;;;;5048944;28;20033;-82
2023/01/01 09:15:36;;;;;;;3.75;0.70;;;11.90;99.90;;;;;;5049542;28;20155;-84
2023/01/01 09:18:01;;;;;;;4.05;1.02;;;12.00;99.90;;;;;;5052177;28;20431;-84
2023/01/01 09:20:27;;;;;;;4.13;0.80;;;12.00;99.90;;;;;;5035437;28;20024;-83
2023/01/01 09:22:52;;;;;;;4.60;1.02;;;12.10;99.90;;;;;;5053029;28;20378;-83
2023/01/01 09:25:18;;;;;;;4.70;1.30;;;12.10;99.90;;;;;;5034550;28;20032;-84
2023/01/01 09:27:44;;;;;;;5.38;0.90;;;12.20;99.90;;;;;;5035338;28;20550;-82
2023/01/01 09:30:11;;;;;;;8.23;1.17;;;12.20;99.90;;;;;;5052919;28;20279;-82
2023/01/01 09:32:37;;;;;;;4.07;1.00;;;12.30;99.90;;;;;;5034730;28;20029;-82
2023/01/01 09:35:03;;;;;;;4.28;0.98;;;12.20;99.90;;;;;;5034798;28;20064;-83
2023/01/01 09:37:30;;;;;;;4.53;0.98;;;12.20;99.90;;;;;;5052313;28;20025;-83
2023/01/01 09:39:55;;;;;;;6.00;1.00;;;12.30;99.90;;;;;;5053083;28;20394;-84
2023/01/01 09:42:40;;;;;;;5.22;1.38;;;12.30;99.90;;;;;;5034777;28;20024;-83
2023/01/01 09:45:17;;;;;;;4.30;0.50;;;12.30;99.90;;;;;;5034768;28;20029;-83
2023/01/01 09:47:50;;;;;;;4.30;0.80;;;12.40;99.90;;;;;;5052045;28;20040;-83
2023/01/01 09:50:22;;;;;;;6.72;1.42;;;12.40;99.90;;;;;;5051025;28;20078;-83
2023/01/01 09:52:54;;;;;;;4.57;1.10;;;12.40;99.90;;;;;;5050269;28;20123;-80
2023/01/01 09:55:41;;;;;;;5.35;1.45;;;12.40;99.90;;;;;;5036791;28;20479;-79
2023/01/01 09:58:10;;;;;;;7.05;1.00;;;12.50;99.90;;;;;;5048642;28;20025;-81
2023/01/01 10:00:39;;;;;;;5.82;1.95;;;12.40;99.90;;;;;;5050835;28;20029;-83
2023/01/01 10:03:16;;;;;;;7.65;1.23;;;12.50;99.90;;;;;;5037340;28;20479;-83
2023/01/01 10:06:10;;;;;;;7.38;1.35;;;12.50;99.90;;;;;;5032231;28;20097;-81
2023/01/01 10:08:42;;;;;;;4.90;1.08;;;12.50;99.90;;;;;;5034625;28;20040;-83
2023/01/01 10:11:32;;;;;;;5.47;1.23;;;12.50;99.90;;;;;;5052119;28;20025;-83
2023/01/01 10:14:03;;;;;;;6.78;1.58;;;12.50;99.90;;;;;;5033627;28;20033;-82
2023/01/01 10:16:35;;;;;;;6.45;1.55;;;12.50;99.90;;;;;;5034056;28;20033;-83
2023/01/01 10:19:18;;;;;;;6.00;1.00;;;12.50;99.90;;;;;;5051830;28;20032;-83
2023/01/01 10:21:45;;;;;;;5.00;1.08;;;12.40;99.90;;;;;;5051442;28;20033;-83
2023/01/01 10:24:18;;;;;;;4.97;1.10;;;12.30;99.90;;;;;;5051759;28;20048;-84
2023/01/01 10:26:44;;;;;;;6.00;1.15;;;12.20;99.90;;;;;;5033038;28;20119;-84
2023/01/01 10:29:21;;;;;;;10.23;1.30;;;12.10;99.90;;;;;;5032694;28;20032;-83
2023/01/01 10:31:46;;;;;;;4.50;1.13;;;11.90;99.90;;;;;;5035965;28;20091;-84
2023/01/01 10:34:24;;;;;;;4.00;1.00;;;11.80;99.90;;;;;;5033335;28;20060;-85
2023/01/01 10:36:56;;;;;;;4.70;1.15;;;11.60;99.90;;;;;;5032883;28;20041;-85
2023/01/01 10:39:22;;;;;;;6.15;1.10;;;11.60;99.90;;;;;;5033198;28;20425;-85
2023/01/01 10:41:49;;;;;;;5.63;1.25;;;11.50;99.90;;;;;;5051446;28;20029;-84
2023/01/01 10:44:20;;;;;;;6.78;1.13;;;11.50;99.90;;;;;;5051523;28;20029;-84
2023/01/01 10:46:52;;;;;;;7.50;1.00;;;11.40;99.90;;;;;;5032879;28;20047;-83
2023/01/01 10:49:17;;;;;;;6.75;1.33;;;11.40;99.90;;;;;;5032623;28;20036;-84
2023/01/01 10:51:48;;;;;;;8.32;1.33;;;11.40;99.90;;;;;;5050880;28;20033;-83
2023/01/01 10:54:26;;;;;;;7.70;1.33;;;11.40;99.90;;;;;;5032822;28;20487;-83
2023/01/01 10:56:52;;;;;;;6.28;1.05;;;11.30;99.90;;;;;;5031907;28;20086;-83
2023/01/01 10:59:39;;;;;;;6.07;1.10;;;11.20;99.90;;;;;;5020737;28;20143;-83
2023/01/01 11:02:18;;;;;;;5.50;0.85;;;11.20;99.90;;;;;;5047738;28;20032;-83
2023/01/01 11:04:44;;;;;;;5.85;1.38;;;11.10;99.90;;;;;;5030822;28;20024;-83
2023/01/01 11:07:17;;;;;;;3.83;1.00;;;11.10;99.90;;;;;;5030503;28;20266;-84
2023/01/01 11:09:48;;;;;;;4.60;1.00;;;11.10;99.90;;;;;;5030608;28;20358;-85
2023/01/01 11:12:19;;;;;;;3.58;1.00;;;11.10;99.90;;;;;;5030311;28;20021;-84
2023/01/01 11:14:52;;;;;;;4.32;1.23;;;11.20;99.90;;;;;;5030130;28;20463;-84
2023/01/01 11:17:26;;;;;;;6.35;1.05;;;11.30;99.90;;;;;;5030720;28;20056;-84
2023/01/01 11:19:53;;;;;;;7.15;1.63;;;11.30;99.90;;;;;;5032499;28;20021;-84
2023/01/01 11:22:46;;;;;;;7.32;1.70;;;11.40;99.90;;;;;;5032259;28;20036;-83
2023/01/01 11:25:26;;;;;;;6.93;1.17;;;11.50;99.90;;;;;;5032454;28;20021;-84
2023/01/01 11:28:18;;;;;;;7.40;1.40;;;11.60;99.90;;;;;;5047771;28;20033;-85
2023/01/01 11:30:59;;;;;;;6.78;1.38;;;11.70;99.90;;;;;;5031957;28;20053;-83
2023/01/01 11:33:26;;;;;;;3.95;1.30;;;11.80;99.90;;;;;;5031155;28;20115;-85
2023/01/01 11:35:54;;;;;;;5.47;1.38;;;11.80;99.90;;;;;;5068023;28;20048;-84
2023/01/01 11:38:23;;;;;;;5.53;1.60;;;11.90;99.90;;;;;;5069662;28;20029;-84
2023/01/01 11:40:52;;;;;;;4.55;1.40;;;12.10;99.90;;;;;;5069966;28;20040;-85
2023/01/01 11:43:24;;;;;;;3.00;1.38;;;12.20;99.90;;;;;;5051822;28;20112;-85
2023/01/01 11:45:51;;;;;;;5.18;1.27;;;12.30;99.90;;;;;;5052192;28;20033;-84
2023/01/01 11:48:27;;;;;;;5.45;1.80;;;12.30;99.90;;;;;;5069939;28;20107;-84
2023/01/01 11:50:55;;;;;;;4.72;1.85;;;12.30;99.90;;;;;;5066848;28;20101;-86
2023/01/01 11:53:21;;;;;;;5.75;2.20;;;12.40;99.90;;;;;;5047496;28;20074;-85
2023/01/01 11:56:04;;;;;;;5.78;2.10;;;12.40;99.90;;;;;;5042231;28;20032;-84
2023/01/01 11:58:36;;;;;;;6.20;2.53;;;12.40;99.90;;;;;;5041880;28;20092;-84
2023/01/01 12:01:13;;;;;;;4.57;1.83;;;12.50;99.90;;;;;;5055772;28;20652;-86
2023/01/01 12:03:50;;;;;;;7.22;2.20;;;12.50;99.90;;;;;;5049583;28;20486;-85
2023/01/01 12:06:15;;;;;;;6.40;2.13;;;12.50;99.90;;;;;;5032521;28;20032;-85
2023/01/01 12:08:53;;;;;;;8.38;2.63;;;12.50;99.90;;;;;;5044970;28;20387;-86
2023/01/01 12:11:43;;;;;;;7.43;2.70;;;12.60;99.90;;;;;;5021099;28;20037;-85
2023/01/01 12:14:43;;;;;;;5.45;2.25;;;12.70;99.90;;;;;;5054722;28;20021;-83
2023/01/01 12:17:32;;;;;;;7.22;2.15;;;12.80;99.90;;;;;;5032100;28;20398;-85
2023/01/01 12:20:09;;;;;;;6.75;3.28;;;12.90;99.90;;;;;;5039688;28;20033;-86
2023/01/01 12:22:35;;;;;;;6.20;2.88;;;12.90;99.90;;;;;;5027432;28;20410;-86
2023/01/01 12:25:02;;;;;;;8.88;3.17;;;12.90;99.90;;;;;;5026761;28;20440;-83
2023/01/01 12:27:42;;;;;;;7.88;2.92;;;13.00;99.90;;;;;;5049383;28;20507;-83
2023/01/01 12:30:18;;;;;;;8.13;3.05;;;13.00;99.90;;;;;;5015133;28;20040;-83
2023/01/01 12:32:56;;;;;;;5.78;2.20;;;13.10;99.90;;;;;;5022565;28;20052;-84
2023/01/01 12:35:43;;;;;;;8.40;2.75;;;13.20;99.90;;;;;;5030490;28;20044;-85
2023/01/01 12:38:42;;;;;;;6.15;2.50;;;13.30;99.90;;;;;;5024200;28;20025;-83
2023/01/01 12:41:20;;;;;;;4.47;1.85;;;13.40;99.90;;;;;;5030783;28;20032;-84
2023/01/01 12:44:01;;;;;;;11.88;2.35;;;13.60;99.90;;;;;;5048407;28;20112;-83
2023/01/01 12:46:44;;;;;;;6.25;2.70;;;13.70;99.90;;;;;;5049105;28;20447;-84
2023/01/01 12:49:18;;;;;;;;;;;13.80;99.90;;;;;;5049415;28;20025;-84
2023/01/01 12:51:46;;;;;;;7.43;2.50;;;13.80;99.90;;;;;;5034808;28;19963;-84
2023/01/01 12:54:30;;;;;;;9.18;2.67;;;13.80;99.90;;;;;;5052685;28;20024;-83
2023/01/01 12:57:22;;;;;;;9.23;2.50;;;13.80;99.90;;;;;;5057243;28;20622;-83
2023/01/01 12:59:50;;;;;;;9.07;2.40;;;13.80;99.90;;;;;;5054612;28;20025;-82
2023/01/01 13:02:21;;;;;;;9.18;2.75;;;13.80;99.90;;;;;;5036501;28;20029;-85
2023/01/01 13:04:51;;;;;;;7.10;2.70;;;13.80;99.90;;;;;;5054896;28;20076;-83
2023/01/01 13:07:47;;;;;;;7.78;2.15;;;13.70;99.90;;;;;;5033934;28;20120;-84
2023/01/01 13:10:24;;;;;;;7.03;2.05;;;13.70;99.90;;;;;;5051357;28;20482;-84
2023/01/01 13:12:52;;;;;;;9.40;3.00;;;13.60;99.90;;;;;;5065952;28;20398;-85